sensor_id;sensor_type;location;lat;lon;timestamp;pressure;altitude;pressure_sealevel;temperature;humidity
80629;BME280;69983;42.370;-71.210;2024-03-07T00:01:07;101462.60;;;22.57;35.83
80629;BME280;69983;42.370;-71.210;2024-03-07T00:03:07;101449.20;;;22.27;36.18
80629;BME280;69983;42.370;-71.210;2024-03-07T00:05:08;101447.89;;;22.50;35.94
80629;BME280;69983;42.370;-71.210;2024-03-07T00:07:07;101443.34;;;22.17;36.02
80629;BME280;69983;42.370;-71.210;2024-03-07T00:09:08;101437.25;;;22.57;35.87
80629;BME280;69983;42.370;-71.210;2024-03-07T00:11:08;101436.66;;;22.39;35.80
80629;BME280;69983;42.370;-71.210;2024-03-07T00:13:08;101438.62;;;22.30;35.98
80629;BME280;69983;42.370;-71.210;2024-03-07T00:15:09;101440.28;;;22.51;36.05
80629;BME280;69983;42.370;-71.210;2024-03-07T00:17:08;101435.85;;;22.43;35.90
80629;BME280;69983;42.370;-71.210;2024-03-07T00:19:08;101437.86;;;22.32;36.08
80629;BME280;69983;42.370;-71.210;2024-03-07T00:21:09;101443.35;;;22.43;36.23
80629;BME280;69983;42.370;-71.210;2024-03-07T00:23:08;101447.50;;;22.46;36.17
80629;BME280;69983;42.370;-71.210;2024-03-07T00:25:09;101446.09;;;22.58;36.05
80629;BME280;69983;42.370;-71.210;2024-03-07T00:27:08;101452.25;;;21.79;36.75
80629;BME280;69983;42.370;-71.210;2024-03-07T00:29:08;101469.08;;;22.17;36.65
80629;BME280;69983;42.370;-71.210;2024-03-07T00:31:09;101472.65;;;22.74;36.25
80629;BME280;69983;42.370;-71.210;2024-03-07T00:33:08;101459.46;;;22.23;36.32
80629;BME280;69983;42.370;-71.210;2024-03-07T00:35:09;101448.91;;;22.52;36.39
80629;BME280;69983;42.370;-71.210;2024-03-07T00:37:09;101432.59;;;22.47;36.61
80629;BME280;69983;42.370;-71.210;2024-03-07T00:39:09;101427.03;;;22.29;37.01
80629;BME280;69983;42.370;-71.210;2024-03-07T00:41:10;101429.13;;;22.47;36.88
80629;BME280;69983;42.370;-71.210;2024-03-07T00:43:10;101430.60;;;22.65;36.87
80629;BME280;69983;42.370;-71.210;2024-03-07T00:45:10;101423.88;;;22.35;37.43
80629;BME280;69983;42.370;-71.210;2024-03-07T00:47:11;101415.67;;;22.31;37.65
80629;BME280;69983;42.370;-71.210;2024-03-07T00:49:10;101421.63;;;22.69;37.40
80629;BME280;69983;42.370;-71.210;2024-03-07T00:51:10;101425.52;;;22.43;37.50
80629;BME280;69983;42.370;-71.210;2024-03-07T00:53:11;101433.51;;;22.78;37.37
80629;BME280;69983;42.370;-71.210;2024-03-07T00:55:11;101434.30;;;22.59;37.36
80629;BME280;69983;42.370;-71.210;2024-03-07T00:57:12;101418.95;;;22.51;37.49
80629;BME280;69983;42.370;-71.210;2024-03-07T00:59:12;101417.51;;;22.56;37.41
80629;BME280;69983;42.370;-71.210;2024-03-07T01:01:12;101426.21;;;22.94;37.56
80629;BME280;69983;42.370;-71.210;2024-03-07T01:03:12;101420.97;;;22.66;37.48
80629;BME280;69983;42.370;-71.210;2024-03-07T01:05:13;101419.82;;;22.72;37.78
80629;BME280;69983;42.370;-71.210;2024-03-07T01:07:17;101415.82;;;23.01;37.45
80629;BME280;69983;42.370;-71.210;2024-03-07T01:09:15;101413.44;;;22.35;37.96
80629;BME280;69983;42.370;-71.210;2024-03-07T01:11:15;101415.65;;;22.42;37.79
80629;BME280;69983;42.370;-71.210;2024-03-07T01:13:15;101406.80;;;22.42;37.81
80629;BME280;69983;42.370;-71.210;2024-03-07T01:15:16;101394.11;;;22.44;37.77
80629;BME280;69983;42.370;-71.210;2024-03-07T01:17:16;101393.43;;;22.60;37.62
80629;BME280;69983;42.370;-71.210;2024-03-07T01:19:18;101411.64;;;22.53;37.65
80629;BME280;69983;42.370;-71.210;2024-03-07T01:21:17;101415.61;;;22.25;38.06
80629;BME280;69983;42.370;-71.210;2024-03-07T01:23:19;101423.29;;;22.40;37.92
80629;BME280;69983;42.370;-71.210;2024-03-07T01:25:18;101426.86;;;22.67;37.53
80629;BME280;69983;42.370;-71.210;2024-03-07T01:27:18;101424.64;;;22.36;37.89
80629;BME280;69983;42.370;-71.210;2024-03-07T01:29:18;101429.55;;;22.54;37.66
80629;BME280;69983;42.370;-71.210;2024-03-07T01:31:19;101429.46;;;22.44;37.82
80629;BME280;69983;42.370;-71.210;2024-03-07T01:33:20;101433.51;;;22.48;37.81
80629;BME280;69983;42.370;-71.210;2024-03-07T01:35:20;101441.49;;;22.94;37.53
80629;BME280;69983;42.370;-71.210;2024-03-07T01:37:20;101447.65;;;22.68;37.61
80629;BME280;69983;42.370;-71.210;2024-03-07T01:39:21;101442.76;;;22.98;37.23
80629;BME280;69983;42.370;-71.210;2024-03-07T01:41:21;101442.82;;;22.82;37.39
80629;BME280;69983;42.370;-71.210;2024-03-07T01:43:25;101444.26;;;22.96;37.21
80629;BME280;69983;42.370;-71.210;2024-03-07T01:45:22;101442.32;;;22.68;37.60
80629;BME280;69983;42.370;-71.210;2024-03-07T01:47:22;101421.67;;;22.87;37.36
80629;BME280;69983;42.370;-71.210;2024-03-07T01:49:22;101425.59;;;22.69;37.58
80629;BME280;69983;42.370;-71.210;2024-03-07T01:51:22;101425.74;;;22.58;37.38
80629;BME280;69983;42.370;-71.210;2024-03-07T01:55:23;101382.38;;;22.41;37.82
80629;BME280;69983;42.370;-71.210;2024-03-07T01:57:24;101386.41;;;22.67;37.42
80629;BME280;69983;42.370;-71.210;2024-03-07T01:59:24;101402.20;;;22.21;37.96
80629;BME280;69983;42.370;-71.210;2024-03-07T02:01:24;101405.73;;;22.37;37.72
80629;BME280;69983;42.370;-71.210;2024-03-07T02:03:24;101416.73;;;22.41;37.67
80629;BME280;69983;42.370;-71.210;2024-03-07T02:05:25;101421.10;;;22.87;37.00
80629;BME280;69983;42.370;-71.210;2024-03-07T02:07:27;101428.93;;;22.43;37.45
80629;BME280;69983;42.370;-71.210;2024-03-07T02:09:26;101424.97;;;22.70;37.07
80629;BME280;69983;42.370;-71.210;2024-03-07T02:11:27;101414.04;;;22.42;37.38
80629;BME280;69983;42.370;-71.210;2024-03-07T02:13:27;101400.45;;;22.45;37.26
80629;BME280;69983;42.370;-71.210;2024-03-07T02:15:28;101402.11;;;22.23;37.50
80629;BME280;69983;42.370;-71.210;2024-03-07T02:17:29;101414.34;;;22.45;37.54
80629;BME280;69983;42.370;-71.210;2024-03-07T02:19:28;101418.87;;;22.82;36.74
80629;BME280;69983;42.370;-71.210;2024-03-07T02:21:28;101415.67;;;22.64;36.89
80629;BME280;69983;42.370;-71.210;2024-03-07T02:23:28;101409.40;;;22.46;37.07
80629;BME280;69983;42.370;-71.210;2024-03-07T02:25:28;101410.14;;;22.56;36.93
80629;BME280;69983;42.370;-71.210;2024-03-07T02:27:30;101423.21;;;22.75;36.93
80629;BME280;69983;42.370;-71.210;2024-03-07T02:29:29;101410.55;;;22.75;36.59
80629;BME280;69983;42.370;-71.210;2024-03-07T02:31:30;101398.81;;;22.96;36.01
80629;BME280;69983;42.370;-71.210;2024-03-07T02:33:31;101408.73;;;23.12;35.76
80629;BME280;69983;42.370;-71.210;2024-03-07T02:35:31;101403.80;;;23.29;35.81
80629;BME280;69983;42.370;-71.210;2024-03-07T02:37:31;101391.82;;;23.00;36.07
80629;BME280;69983;42.370;-71.210;2024-03-07T02:39:31;101384.85;;;23.09;35.95
80629;BME280;69983;42.370;-71.210;2024-03-07T02:41:31;101384.07;;;22.80;36.19
80629;BME280;69983;42.370;-71.210;2024-03-07T02:43:32;101378.58;;;22.66;36.37
80629;BME280;69983;42.370;-71.210;2024-03-07T02:45:32;101355.76;;;23.05;35.91
80629;BME280;69983;42.370;-71.210;2024-03-07T02:47:33;101349.75;;;22.89;36.04
80629;BME280;69983;42.370;-71.210;2024-03-07T02:49:34;101348.14;;;22.83;35.76
80629;BME280;69983;42.370;-71.210;2024-03-07T02:51:34;101323.22;;;22.64;36.25
80629;BME280;69983;42.370;-71.210;2024-03-07T02:53:34;101313.10;;;23.04;35.85
80629;BME280;69983;42.370;-71.210;2024-03-07T02:55:40;101320.85;;;23.00;35.79
80629;BME280;69983;42.370;-71.210;2024-03-07T02:57:35;101315.72;;;22.68;35.47
80629;BME280;69983;42.370;-71.210;2024-03-07T02:59:35;101302.19;;;23.08;35.60
80629;BME280;69983;42.370;-71.210;2024-03-07T03:01:36;101309.13;;;22.79;35.92
80629;BME280;69983;42.370;-71.210;2024-03-07T03:03:36;101314.41;;;22.20;36.27
80629;BME280;69983;42.370;-71.210;2024-03-07T03:05:37;101301.29;;;21.69;37.09
80629;BME280;69983;42.370;-71.210;2024-03-07T03:07:38;101284.49;;;21.54;37.26
80629;BME280;69983;42.370;-71.210;2024-03-07T03:09:38;101277.27;;;21.73;37.23
80629;BME280;69983;42.370;-71.210;2024-03-07T03:11:38;101275.90;;;21.71;37.51
80629;BME280;69983;42.370;-71.210;2024-03-07T03:13:39;101270.32;;;21.87;37.01
80629;BME280;69983;42.370;-71.210;2024-03-07T03:15:39;101262.46;;;21.48;36.91
80629;BME280;69983;42.370;-71.210;2024-03-07T03:17:39;101259.22;;;22.04;36.30
80629;BME280;69983;42.370;-71.210;2024-03-07T03:19:40;101264.19;;;22.05;36.01
80629;BME280;69983;42.370;-71.210;2024-03-07T03:21:40;101251.83;;;21.68;36.23
80629;BME280;69983;42.370;-71.210;2024-03-07T03:23:41;101246.86;;;21.81;36.28
80629;BME280;69983;42.370;-71.210;2024-03-07T03:25:42;101248.33;;;22.11;35.91
80629;BME280;69983;42.370;-71.210;2024-03-07T03:27:42;101250.44;;;22.32;35.51
80629;BME280;69983;42.370;-71.210;2024-03-07T03:29:42;101248.49;;;22.02;35.63
80629;BME280;69983;42.370;-71.210;2024-03-07T03:31:43;101238.48;;;22.11;35.44
80629;BME280;69983;42.370;-71.210;2024-03-07T03:33:43;101242.36;;;21.86;35.98
80629;BME280;69983;42.370;-71.210;2024-03-07T03:35:44;101249.88;;;21.62;35.75
80629;BME280;69983;42.370;-71.210;2024-03-07T03:37:44;101255.51;;;22.10;35.49
80629;BME280;69983;42.370;-71.210;2024-03-07T03:39:44;101259.01;;;22.37;35.49
80629;BME280;69983;42.370;-71.210;2024-03-07T03:41:44;101247.27;;;22.11;35.46
80629;BME280;69983;42.370;-71.210;2024-03-07T03:43:45;101240.61;;;21.99;35.56
80629;BME280;69983;42.370;-71.210;2024-03-07T03:45:45;101228.34;;;21.90;35.67
80629;BME280;69983;42.370;-71.210;2024-03-07T03:47:53;101209.73;;;22.23;35.26
80629;BME280;69983;42.370;-71.210;2024-03-07T03:49:46;101206.41;;;22.20;35.29
80629;BME280;69983;42.370;-71.210;2024-03-07T03:51:47;101211.34;;;22.78;35.26
80629;BME280;69983;42.370;-71.210;2024-03-07T03:53:47;101211.59;;;22.64;34.91
80629;BME280;69983;42.370;-71.210;2024-03-07T03:55:48;101202.15;;;22.06;35.62
80629;BME280;69983;42.370;-71.210;2024-03-07T03:57:48;101192.00;;;21.98;35.76
80629;BME280;69983;42.370;-71.210;2024-03-07T03:59:49;101189.95;;;22.22;35.48
80629;BME280;69983;42.370;-71.210;2024-03-07T04:01:50;101188.67;;;22.24;35.59
80629;BME280;69983;42.370;-71.210;2024-03-07T04:03:50;101179.14;;;21.92;35.95
80629;BME280;69983;42.370;-71.210;2024-03-07T04:05:50;101181.69;;;22.03;35.75
80629;BME280;69983;42.370;-71.210;2024-03-07T04:07:51;101176.20;;;22.49;35.42
80629;BME280;69983;42.370;-71.210;2024-03-07T04:09:51;101176.75;;;21.96;35.74
80629;BME280;69983;42.370;-71.210;2024-03-07T04:11:52;101166.21;;;22.03;35.61
80629;BME280;69983;42.370;-71.210;2024-03-07T04:13:53;101167.05;;;21.89;35.89
80629;BME280;69983;42.370;-71.210;2024-03-07T04:15:54;101171.37;;;21.60;36.32
80629;BME280;69983;42.370;-71.210;2024-03-07T04:17:55;101175.25;;;21.93;36.02
80629;BME280;69983;42.370;-71.210;2024-03-07T04:19:55;101179.64;;;22.18;35.95
80629;BME280;69983;42.370;-71.210;2024-03-07T04:21:55;101180.72;;;22.12;35.75
80629;BME280;69983;42.370;-71.210;2024-03-07T04:23:56;101182.57;;;22.52;35.57
80629;BME280;69983;42.370;-71.210;2024-03-07T04:25:57;101168.50;;;21.86;35.97
80629;BME280;69983;42.370;-71.210;2024-03-07T04:27:58;101161.58;;;22.10;35.55
80629;BME280;69983;42.370;-71.210;2024-03-07T04:29:59;101160.17;;;22.22;35.35
80629;BME280;69983;42.370;-71.210;2024-03-07T04:31:59;101148.32;;;22.49;35.01
80629;BME280;69983;42.370;-71.210;2024-03-07T04:33:59;101136.00;;;21.80;35.86
80629;BME280;69983;42.370;-71.210;2024-03-07T04:35:59;101132.44;;;22.11;35.58
80629;BME280;69983;42.370;-71.210;2024-03-07T04:38:00;101134.25;;;22.13;35.55
80629;BME280;69983;42.370;-71.210;2024-03-07T04:40:01;101126.88;;;22.02;35.92
80629;BME280;69983;42.370;-71.210;2024-03-07T04:42:01;101125.51;;;22.13;35.43
80629;BME280;69983;42.370;-71.210;2024-03-07T04:44:01;101121.30;;;22.04;35.78
80629;BME280;69983;42.370;-71.210;2024-03-07T04:46:01;101119.51;;;21.61;35.92
80629;BME280;69983;42.370;-71.210;2024-03-07T04:48:02;101127.84;;;21.92;35.91
80629;BME280;69983;42.370;-71.210;2024-03-07T04:50:03;101135.94;;;22.00;35.83
80629;BME280;69983;42.370;-71.210;2024-03-07T04:52:04;101115.94;;;22.23;35.48
80629;BME280;69983;42.370;-71.210;2024-03-07T04:54:04;101103.72;;;21.73;35.68
80629;BME280;69983;42.370;-71.210;2024-03-07T04:56:05;101094.69;;;21.69;35.58
80629;BME280;69983;42.370;-71.210;2024-03-07T04:58:05;101084.92;;;21.96;35.10
80629;BME280;69983;42.370;-71.210;2024-03-07T05:00:07;101080.43;;;21.87;35.48
80629;BME280;69983;42.370;-71.210;2024-03-07T05:02:05;101070.89;;;22.03;35.09
80629;BME280;69983;42.370;-71.210;2024-03-07T05:04:05;101054.91;;;21.72;35.46
80629;BME280;69983;42.370;-71.210;2024-03-07T05:06:06;101042.02;;;21.78;35.25
80629;BME280;69983;42.370;-71.210;2024-03-07T05:08:06;101053.92;;;21.97;35.33
80629;BME280;69983;42.370;-71.210;2024-03-07T05:10:08;101055.40;;;22.16;35.00
80629;BME280;69983;42.370;-71.210;2024-03-07T05:12:08;101051.30;;;22.29;35.32
80629;BME280;69983;42.370;-71.210;2024-03-07T05:14:08;101042.87;;;21.82;35.68
80629;BME280;69983;42.370;-71.210;2024-03-07T05:16:09;101029.77;;;22.02;35.56
80629;BME280;69983;42.370;-71.210;2024-03-07T05:18:10;101018.30;;;22.17;35.81
80629;BME280;69983;42.370;-71.210;2024-03-07T05:20:14;101040.68;;;22.13;36.02
80629;BME280;69983;42.370;-71.210;2024-03-07T05:22:11;101037.84;;;22.28;35.63
80629;BME280;69983;42.370;-71.210;2024-03-07T05:24:12;101026.13;;;22.32;35.64
80629;BME280;69983;42.370;-71.210;2024-03-07T05:26:12;101007.12;;;22.37;35.62
80629;BME280;69983;42.370;-71.210;2024-03-07T05:28:13;100972.69;;;22.36;35.67
80629;BME280;69983;42.370;-71.210;2024-03-07T05:30:14;100950.65;;;22.45;35.56
80629;BME280;69983;42.370;-71.210;2024-03-07T05:32:22;100953.77;;;22.28;35.82
80629;BME280;69983;42.370;-71.210;2024-03-07T05:34:15;100944.78;;;22.59;35.46
80629;BME280;69983;42.370;-71.210;2024-03-07T05:36:15;100940.83;;;22.48;35.64
80629;BME280;69983;42.370;-71.210;2024-03-07T05:38:15;100927.66;;;22.49;35.64
80629;BME280;69983;42.370;-71.210;2024-03-07T05:40:17;100917.61;;;22.67;35.43
80629;BME280;69983;42.370;-71.210;2024-03-07T05:42:15;100925.59;;;22.87;35.47
80629;BME280;69983;42.370;-71.210;2024-03-07T05:44:16;100930.12;;;22.61;35.57
80629;BME280;69983;42.370;-71.210;2024-03-07T05:46:16;100920.86;;;22.75;35.45
80629;BME280;69983;42.370;-71.210;2024-03-07T05:48:16;100915.27;;;22.56;35.68
80629;BME280;69983;42.370;-71.210;2024-03-07T05:50:17;100911.36;;;22.63;35.59
80629;BME280;69983;42.370;-71.210;2024-03-07T05:52:17;100902.54;;;22.33;36.06
80629;BME280;69983;42.370;-71.210;2024-03-07T05:54:17;100888.38;;;22.41;35.96
80629;BME280;69983;42.370;-71.210;2024-03-07T05:56:18;100870.00;;;22.58;35.75
80629;BME280;69983;42.370;-71.210;2024-03-07T05:58:18;100858.96;;;22.61;35.98
80629;BME280;69983;42.370;-71.210;2024-03-07T06:00:19;100856.00;;;22.19;36.24
80629;BME280;69983;42.370;-71.210;2024-03-07T06:02:19;100853.27;;;22.20;35.94
80629;BME280;69983;42.370;-71.210;2024-03-07T06:04:20;100848.67;;;22.83;35.47
80629;BME280;69983;42.370;-71.210;2024-03-07T06:06:20;100848.83;;;22.86;35.37
80629;BME280;69983;42.370;-71.210;2024-03-07T06:08:21;100856.87;;;22.52;35.79
80629;BME280;69983;42.370;-71.210;2024-03-07T06:10:21;100855.20;;;22.61;35.66
80629;BME280;69983;42.370;-71.210;2024-03-07T06:12:21;100857.23;;;22.48;35.91
80629;BME280;69983;42.370;-71.210;2024-03-07T06:14:22;100873.71;;;23.00;35.54
80629;BME280;69983;42.370;-71.210;2024-03-07T06:16:22;100865.84;;;22.78;35.53
80629;BME280;69983;42.370;-71.210;2024-03-07T06:18:22;100844.15;;;22.85;35.49
80629;BME280;69983;42.370;-71.210;2024-03-07T06:20:26;100823.15;;;22.87;35.51
80629;BME280;69983;42.370;-71.210;2024-03-07T06:22:23;100819.58;;;22.13;36.20
80629;BME280;69983;42.370;-71.210;2024-03-07T06:24:23;100845.36;;;22.66;35.83
80629;BME280;69983;42.370;-71.210;2024-03-07T06:26:23;100842.19;;;22.59;35.68
80629;BME280;69983;42.370;-71.210;2024-03-07T06:28:24;100824.26;;;23.06;35.42
80629;BME280;69983;42.370;-71.210;2024-03-07T06:30:24;100827.33;;;23.08;35.07
80629;BME280;69983;42.370;-71.210;2024-03-07T06:32:26;100830.04;;;23.17;35.30
80629;BME280;69983;42.370;-71.210;2024-03-07T06:34:25;100807.72;;;23.19;35.30
80629;BME280;69983;42.370;-71.210;2024-03-07T06:36:26;100787.49;;;22.97;35.56
80629;BME280;69983;42.370;-71.210;2024-03-07T06:38:27;100783.44;;;23.11;35.38
80629;BME280;69983;42.370;-71.210;2024-03-07T06:40:27;100783.01;;;23.02;35.48
80629;BME280;69983;42.370;-71.210;2024-03-07T06:42:28;100770.09;;;23.07;35.41
80629;BME280;69983;42.370;-71.210;2024-03-07T06:44:28;100768.56;;;23.13;35.33
80629;BME280;69983;42.370;-71.210;2024-03-07T06:46:29;100777.52;;;23.00;35.46
80629;BME280;69983;42.370;-71.210;2024-03-07T06:48:29;100781.44;;;22.79;35.40
80629;BME280;69983;42.370;-71.210;2024-03-07T06:50:30;100767.40;;;22.95;35.22
80629;BME280;69983;42.370;-71.210;2024-03-07T06:52:31;100745.61;;;22.93;35.23
80629;BME280;69983;42.370;-71.210;2024-03-07T06:54:30;100740.96;;;23.18;35.25
80629;BME280;69983;42.370;-71.210;2024-03-07T06:56:31;100748.07;;;23.20;35.21
80629;BME280;69983;42.370;-71.210;2024-03-07T06:58:31;100734.25;;;23.20;35.23
80629;BME280;69983;42.370;-71.210;2024-03-07T07:00:31;100728.19;;;23.25;35.14
80629;BME280;69983;42.370;-71.210;2024-03-07T07:02:33;100715.70;;;23.17;35.21
80629;BME280;69983;42.370;-71.210;2024-03-07T07:04:32;100713.60;;;22.84;35.32
80629;BME280;69983;42.370;-71.210;2024-03-07T07:06:32;100709.20;;;22.97;35.46
80629;BME280;69983;42.370;-71.210;2024-03-07T07:08:34;100705.41;;;23.22;35.19
80629;BME280;69983;42.370;-71.210;2024-03-07T07:10:34;100699.09;;;22.70;35.45
80629;BME280;69983;42.370;-71.210;2024-03-07T07:12:34;100697.21;;;23.62;34.95
80629;BME280;69983;42.370;-71.210;2024-03-07T07:14:34;100696.98;;;23.16;35.23
80629;BME280;69983;42.370;-71.210;2024-03-07T07:16:36;100689.73;;;23.26;35.12
80629;BME280;69983;42.370;-71.210;2024-03-07T07:18:36;100681.42;;;22.88;35.24
80629;BME280;69983;42.370;-71.210;2024-03-07T07:20:36;100677.57;;;23.05;35.05
80629;BME280;69983;42.370;-71.210;2024-03-07T07:22:37;100676.36;;;22.55;35.35
80629;BME280;69983;42.370;-71.210;2024-03-07T07:24:39;100657.45;;;23.25;34.79
80629;BME280;69983;42.370;-71.210;2024-03-07T07:26:38;100648.43;;;23.28;35.03
80629;BME280;69983;42.370;-71.210;2024-03-07T07:28:39;100641.69;;;23.28;35.04
80629;BME280;69983;42.370;-71.210;2024-03-07T07:30:39;100642.24;;;22.94;35.43
80629;BME280;69983;42.370;-71.210;2024-03-07T07:32:41;100660.68;;;22.71;35.67
80629;BME280;69983;42.370;-71.210;2024-03-07T07:34:40;100666.71;;;22.90;35.20
80629;BME280;69983;42.370;-71.210;2024-03-07T07:36:40;100662.95;;;23.16;35.19
80629;BME280;69983;42.370;-71.210;2024-03-07T07:38:40;100656.38;;;23.08;35.27
80629;BME280;69983;42.370;-71.210;2024-03-07T07:40:41;100652.11;;;23.12;34.92
80629;BME280;69983;42.370;-71.210;2024-03-07T07:42:41;100651.49;;;23.40;34.86
80629;BME280;69983;42.370;-71.210;2024-03-07T07:44:41;100648.91;;;22.93;35.15
80629;BME280;69983;42.370;-71.210;2024-03-07T07:46:42;100649.71;;;23.10;35.25
80629;BME280;69983;42.370;-71.210;2024-03-07T07:48:42;100647.72;;;23.15;35.20
80629;BME280;69983;42.370;-71.210;2024-03-07T07:50:42;100656.33;;;23.15;35.20
80629;BME280;69983;42.370;-71.210;2024-03-07T07:52:44;100666.53;;;22.98;35.40
80629;BME280;69983;42.370;-71.210;2024-03-07T07:54:43;100665.77;;;23.17;35.18
80629;BME280;69983;42.370;-71.210;2024-03-07T07:56:43;100669.13;;;23.22;35.14
80629;BME280;69983;42.370;-71.210;2024-03-07T07:58:44;100669.75;;;23.30;35.03
80629;BME280;69983;42.370;-71.210;2024-03-07T08:00:45;100666.03;;;23.13;35.23
80629;BME280;69983;42.370;-71.210;2024-03-07T08:02:45;100672.17;;;23.06;35.32
80629;BME280;69983;42.370;-71.210;2024-03-07T08:04:45;100682.43;;;22.89;35.52
80629;BME280;69983;42.370;-71.210;2024-03-07T08:06:45;100677.08;;;23.23;35.11
80629;BME280;69983;42.370;-71.210;2024-03-07T08:08:45;100667.97;;;23.23;35.12
80629;BME280;69983;42.370;-71.210;2024-03-07T08:10:45;100672.17;;;23.05;35.33
80629;BME280;69983;42.370;-71.210;2024-03-07T08:12:46;100666.65;;;22.74;35.42
80629;BME280;69983;42.370;-71.210;2024-03-07T08:14:45;100682.36;;;22.98;35.45
80629;BME280;69983;42.370;-71.210;2024-03-07T08:16:49;100692.63;;;23.15;35.27
80629;BME280;69983;42.370;-71.210;2024-03-07T08:18:45;100687.23;;;23.11;35.31
80629;BME280;69983;42.370;-71.210;2024-03-07T08:20:46;100682.20;;;23.25;35.43
80629;BME280;69983;42.370;-71.210;2024-03-07T08:22:46;100688.44;;;22.93;35.54
80629;BME280;69983;42.370;-71.210;2024-03-07T08:24:46;100701.74;;;23.13;35.57
80629;BME280;69983;42.370;-71.210;2024-03-07T08:26:46;100710.02;;;23.01;35.12
80629;BME280;69983;42.370;-71.210;2024-03-07T08:28:46;100715.39;;;23.12;35.25
80629;BME280;69983;42.370;-71.210;2024-03-07T08:30:46;100728.38;;;23.36;35.21
80629;BME280;69983;42.370;-71.210;2024-03-07T08:32:47;100729.34;;;22.87;35.56
80629;BME280;69983;42.370;-71.210;2024-03-07T08:34:46;100724.85;;;23.01;35.37
80629;BME280;69983;42.370;-71.210;2024-03-07T08:36:46;100723.22;;;22.99;35.44
80629;BME280;69983;42.370;-71.210;2024-03-07T08:38:46;100732.05;;;22.85;35.56
80629;BME280;69983;42.370;-71.210;2024-03-07T08:40:46;100735.27;;;22.92;35.21
80629;BME280;69983;42.370;-71.210;2024-03-07T08:42:48;100738.40;;;23.08;35.32
80629;BME280;69983;42.370;-71.210;2024-03-07T08:44:47;100740.62;;;23.08;35.33
80629;BME280;69983;42.370;-71.210;2024-03-07T08:46:47;100744.54;;;23.11;35.27
80629;BME280;69983;42.370;-71.210;2024-03-07T08:48:47;100748.50;;;23.50;35.09
80629;BME280;69983;42.370;-71.210;2024-03-07T08:50:47;100751.96;;;23.00;35.41
80629;BME280;69983;42.370;-71.210;2024-03-07T08:52:48;100753.68;;;23.14;35.24
80629;BME280;69983;42.370;-71.210;2024-03-07T08:54:47;100747.76;;;23.18;35.20
80629;BME280;69983;42.370;-71.210;2024-03-07T08:56:47;100749.42;;;23.02;35.41
80629;BME280;69983;42.370;-71.210;2024-03-07T08:58:48;100750.71;;;22.94;35.48
80629;BME280;69983;42.370;-71.210;2024-03-07T09:00:52;100739.72;;;22.93;35.49
80629;BME280;69983;42.370;-71.210;2024-03-07T09:02:49;100733.00;;;23.00;35.42
80629;BME280;69983;42.370;-71.210;2024-03-07T09:04:47;100730.23;;;23.20;35.44
80629;BME280;69983;42.370;-71.210;2024-03-07T09:06:47;100729.73;;;22.89;35.23
80629;BME280;69983;42.370;-71.210;2024-03-07T09:08:48;100729.41;;;23.03;35.37
80629;BME280;69983;42.370;-71.210;2024-03-07T09:10:48;100727.54;;;23.02;35.42
80629;BME280;69983;42.370;-71.210;2024-03-07T09:12:51;100724.85;;;22.88;35.53
80629;BME280;69983;42.370;-71.210;2024-03-07T09:14:48;100718.00;;;22.88;35.55
80629;BME280;69983;42.370;-71.210;2024-03-07T09:16:48;100708.35;;;22.67;35.80
80629;BME280;69983;42.370;-71.210;2024-03-07T09:18:48;100696.71;;;22.91;35.52
80629;BME280;69983;42.370;-71.210;2024-03-07T09:20:48;100684.74;;;22.72;35.74
80629;BME280;69983;42.370;-71.210;2024-03-07T09:22:48;100685.69;;;22.81;35.60
80629;BME280;69983;42.370;-71.210;2024-03-07T09:24:49;100684.10;;;23.31;35.32
80629;BME280;69983;42.370;-71.210;2024-03-07T09:26:49;100680.84;;;22.68;35.72
80629;BME280;69983;42.370;-71.210;2024-03-07T09:28:48;100681.27;;;22.94;35.44
80629;BME280;69983;42.370;-71.210;2024-03-07T09:30:48;100680.97;;;22.98;35.70
80629;BME280;69983;42.370;-71.210;2024-03-07T09:32:49;100674.11;;;23.12;35.50
80629;BME280;69983;42.370;-71.210;2024-03-07T09:34:49;100670.75;;;23.39;35.26
80629;BME280;69983;42.370;-71.210;2024-03-07T09:36:49;100641.89;;;22.87;35.55
80629;BME280;69983;42.370;-71.210;2024-03-07T09:38:49;100636.06;;;23.21;35.16
80629;BME280;69983;42.370;-71.210;2024-03-07T09:40:49;100647.40;;;23.02;35.64
80629;BME280;69983;42.370;-71.210;2024-03-07T09:42:50;100672.31;;;22.97;35.44
80629;BME280;69983;42.370;-71.210;2024-03-07T09:44:50;100675.92;;;23.21;35.42
80629;BME280;69983;42.370;-71.210;2024-03-07T09:46:50;100693.31;;;22.94;35.48
80629;BME280;69983;42.370;-71.210;2024-03-07T09:48:49;100702.50;;;23.07;35.56
80629;BME280;69983;42.370;-71.210;2024-03-07T09:50:51;100700.16;;;22.86;35.55
80629;BME280;69983;42.370;-71.210;2024-03-07T09:52:50;100705.43;;;22.89;35.52
80629;BME280;69983;42.370;-71.210;2024-03-07T09:54:50;100715.22;;;22.86;35.54
80629;BME280;69983;42.370;-71.210;2024-03-07T09:56:50;100735.31;;;23.17;35.48
80629;BME280;69983;42.370;-71.210;2024-03-07T09:58:51;100751.15;;;22.82;35.63
80629;BME280;69983;42.370;-71.210;2024-03-07T10:00:50;100745.28;;;23.12;35.55
80629;BME280;69983;42.370;-71.210;2024-03-07T10:02:54;100731.10;;;22.98;35.73
80629;BME280;69983;42.370;-71.210;2024-03-07T10:04:52;100733.81;;;22.85;35.62
80629;BME280;69983;42.370;-71.210;2024-03-07T10:06:50;100756.31;;;22.83;35.64
80629;BME280;69983;42.370;-71.210;2024-03-07T10:08:51;100755.79;;;22.81;35.66
80629;BME280;69983;42.370;-71.210;2024-03-07T10:10:51;100753.16;;;22.89;35.57
80629;BME280;69983;42.370;-71.210;2024-03-07T10:12:50;100765.48;;;23.02;35.70
80629;BME280;69983;42.370;-71.210;2024-03-07T10:14:51;100772.05;;;22.56;35.67